sensor_id;sensor_type;location;lat;lon;timestamp;temperature;humidity
51825;DHT22;37879;52.986;6.282;2023-02-11T00:01:14;6.50;99.90
51825;DHT22;37879;52.986;6.282;2023-02-11T00:03:42;6.50;99.90
51825;DHT22;37879;52.986;6.282;2023-02-11T00:06:10;6.50;99.90
51825;DHT22;37879;52.986;6.282;2023-02-11T00:08:36;6.40;99.90
51825;DHT22;37879;52.986;6.282;2023-02-11T00:11:02;6.40;99.90
51825;DHT22;37879;52.986;6.282;2023-02-11T00:13:28;6.40;99.90
51825;DHT22;37879;52.986;6.282;2023-02-11T00:15:54;6.20;99.90
51825;DHT22;37879;52.986;6.282;2023-02-11T00:18:19;7.00;99.90
51825;DHT22;37879;52.986;6.282;2023-02-11T00:20:45;6.10;99.90
51825;DHT22;37879;52.986;6.282;2023-02-11T00:23:11;6.10;99.90
51825;DHT22;37879;52.986;6.282;2023-02-11T00:25:41;6.40;99.90
51825;DHT22;37879;52.986;6.282;2023-02-11T00:28:07;6.60;99.90
51825;DHT22;37879;52.986;6.282;2023-02-11T00:30:33;5.90;99.90
51825;DHT22;37879;52.986;6.282;2023-02-11T00:32:59;5.90;99.90
51825;DHT22;37879;52.986;6.282;2023-02-11T00:35:24;5.80;99.90
51825;DHT22;37879;52.986;6.282;2023-02-11T00:37:52;5.70;99.90
51825;DHT22;37879;52.986;6.282;2023-02-11T00:40:18;5.80;99.90
51825;DHT22;37879;52.986;6.282;2023-02-11T00:42:44;5.70;99.90
51825;DHT22;37879;52.986;6.282;2023-02-11T00:45:09;5.50;99.90
51825;DHT22;37879;52.986;6.282;2023-02-11T00:47:35;5.60;99.90
51825;DHT22;37879;52.986;6.282;2023-02-11T00:50:01;5.60;99.90
51825;DHT22;37879;52.986;6.282;2023-02-11T00:52:33;5.60;99.90
51825;DHT22;37879;52.986;6.282;2023-02-11T00:54:59;5.60;99.90
51825;DHT22;37879;52.986;6.282;2023-02-11T00:57:25;5.50;99.90
51825;DHT22;37879;52.986;6.282;2023-02-11T00:59:50;5.90;99.90
51825;DHT22;37879;52.986;6.282;2023-02-11T01:02:16;5.50;99.90
51825;DHT22;37879;52.986;6.282;2023-02-11T01:04:42;5.50;99.90
51825;DHT22;37879;52.986;6.282;2023-02-11T01:07:08;5.50;99.90
51825;DHT22;37879;52.986;6.282;2023-02-11T01:09:37;5.40;99.90
51825;DHT22;37879;52.986;6.282;2023-02-11T01:12:02;5.40;99.90
51825;DHT22;37879;52.986;6.282;2023-02-11T01:14:28;5.40;99.90
51825;DHT22;37879;52.986;6.282;2023-02-11T01:16:54;5.40;99.90
51825;DHT22;37879;52.986;6.282;2023-02-11T01:19:19;5.30;99.90
51825;DHT22;37879;52.986;6.282;2023-02-11T01:21:45;5.30;99.90
51825;DHT22;37879;52.986;6.282;2023-02-11T01:24:10;5.30;99.90
51825;DHT22;37879;52.986;6.282;2023-02-11T01:26:36;5.40;99.90
51825;DHT22;37879;52.986;6.282;2023-02-11T01:29:02;5.30;99.90
51825;DHT22;37879;52.986;6.282;2023-02-11T01:31:29;5.30;99.90
51825;DHT22;37879;52.986;6.282;2023-02-11T01:33:55;5.60;99.90
51825;DHT22;37879;52.986;6.282;2023-02-11T01:36:20;5.40;99.90
51825;DHT22;37879;52.986;6.282;2023-02-11T01:38:46;5.40;99.90
51825;DHT22;37879;52.986;6.282;2023-02-11T01:41:13;5.40;99.90
51825;DHT22;37879;52.986;6.282;2023-02-11T01:43:47;5.50;99.90
51825;DHT22;37879;52.986;6.282;2023-02-11T01:46:24;5.50;99.90
51825;DHT22;37879;52.986;6.282;2023-02-11T01:48:54;5.50;99.90
51825;DHT22;37879;52.986;6.282;2023-02-11T01:51:39;5.50;99.90
51825;DHT22;37879;52.986;6.282;2023-02-11T01:54:09;6.20;99.90
51825;DHT22;37879;52.986;6.282;2023-02-11T01:56:56;5.60;99.90
51825;DHT22;37879;52.986;6.282;2023-02-11T02:00:04;5.60;99.90
51825;DHT22;37879;52.986;6.282;2023-02-11T02:10:51;5.60;99.90
51825;DHT22;37879;52.986;6.282;2023-02-11T02:13:22;6.70;99.90
51825;DHT22;37879;52.986;6.282;2023-02-11T02:15:56;5.80;99.90
51825;DHT22;37879;52.986;6.282;2023-02-11T02:35:26;5.50;99.90
51825;DHT22;37879;52.986;6.282;2023-02-11T02:40:42;5.60;99.90
51825;DHT22;37879;52.986;6.282;2023-02-11T02:43:10;5.60;99.90
51825;DHT22;37879;52.986;6.282;2023-02-11T02:45:37;5.60;99.90
51825;DHT22;37879;52.986;6.282;2023-02-11T02:48:03;5.70;99.90
51825;DHT22;37879;52.986;6.282;2023-02-11T02:50:32;5.70;99.90
51825;DHT22;37879;52.986;6.282;2023-02-11T02:55:37;5.90;99.90
51825;DHT22;37879;52.986;6.282;2023-02-11T02:58:30;5.70;99.90
51825;DHT22;37879;52.986;6.282;2023-02-11T03:01:07;5.70;99.90
51825;DHT22;37879;52.986;6.282;2023-02-11T03:03:58;5.70;99.90
51825;DHT22;37879;52.986;6.282;2023-02-11T03:06:44;5.70;99.90
51825;DHT22;37879;52.986;6.282;2023-02-11T03:12:21;5.80;99.90
51825;DHT22;37879;52.986;6.282;2023-02-11T03:14:51;5.80;99.90
51825;DHT22;37879;52.986;6.282;2023-02-11T03:17:17;6.10;99.90
51825;DHT22;37879;52.986;6.282;2023-02-11T03:19:45;5.80;99.90
51825;DHT22;37879;52.986;6.282;2023-02-11T03:22:18;5.90;99.90
51825;DHT22;37879;52.986;6.282;2023-02-11T03:24:45;5.90;99.90
51825;DHT22;37879;52.986;6.282;2023-02-11T03:27:16;5.90;99.90
51825;DHT22;37879;52.986;6.282;2023-02-11T03:30:00;5.90;99.90
51825;DHT22;37879;52.986;6.282;2023-02-11T03:32:44;6.00;99.90
51825;DHT22;37879;52.986;6.282;2023-02-11T03:35:19;6.50;99.90
51825;DHT22;37879;52.986;6.282;2023-02-11T03:37:54;6.10;99.90
51825;DHT22;37879;52.986;6.282;2023-02-11T03:40:35;6.10;99.90
51825;DHT22;37879;52.986;6.282;2023-02-11T03:43:07;6.10;99.90
51825;DHT22;37879;52.986;6.282;2023-02-11T03:45:35;6.50;99.90
51825;DHT22;37879;52.986;6.282;2023-02-11T03:48:14;6.10;99.90
51825;DHT22;37879;52.986;6.282;2023-02-11T03:50:42;6.10;99.90
51825;DHT22;37879;52.986;6.282;2023-02-11T03:53:10;6.10;99.90
51825;DHT22;37879;52.986;6.282;2023-02-11T03:55:39;6.10;99.90
51825;DHT22;37879;52.986;6.282;2023-02-11T03:58:05;6.10;99.90
51825;DHT22;37879;52.986;6.282;2023-02-11T04:00:33;6.00;99.90
51825;DHT22;37879;52.986;6.282;2023-02-11T04:02:59;6.00;99.90
51825;DHT22;37879;52.986;6.282;2023-02-11T04:05:24;6.60;99.90
51825;DHT22;37879;52.986;6.282;2023-02-11T04:07:50;6.00;99.90
51825;DHT22;37879;52.986;6.282;2023-02-11T04:10:16;6.00;99.90
51825;DHT22;37879;52.986;6.282;2023-02-11T04:12:41;6.00;99.90
51825;DHT22;37879;52.986;6.282;2023-02-11T04:15:08;6.00;99.90
51825;DHT22;37879;52.986;6.282;2023-02-11T04:17:34;6.00;99.90
51825;DHT22;37879;52.986;6.282;2023-02-11T04:19:59;6.00;99.90
51825;DHT22;37879;52.986;6.282;2023-02-11T04:22:25;6.00;99.90
51825;DHT22;37879;52.986;6.282;2023-02-11T04:24:50;6.10;99.90
51825;DHT22;37879;52.986;6.282;2023-02-11T04:27:16;6.00;99.90
51825;DHT22;37879;52.986;6.282;2023-02-11T04:29:42;6.50;99.90
51825;DHT22;37879;52.986;6.282;2023-02-11T04:32:08;6.40;99.90
51825;DHT22;37879;52.986;6.282;2023-02-11T04:34:34;6.00;99.90
51825;DHT22;37879;52.986;6.282;2023-02-11T04:37:00;6.00;99.90
51825;DHT22;37879;52.986;6.282;2023-02-11T04:39:26;6.90;99.90
51825;DHT22;37879;52.986;6.282;2023-02-11T04:41:52;6.00;99.90
51825;DHT22;37879;52.986;6.282;2023-02-11T04:44:17;6.00;99.90
51825;DHT22;37879;52.986;6.282;2023-02-11T04:46:43;6.00;99.90
51825;DHT22;37879;52.986;6.282;2023-02-11T04:49:12;5.90;99.90
51825;DHT22;37879;52.986;6.282;2023-02-11T04:51:38;6.00;99.90
51825;DHT22;37879;52.986;6.282;2023-02-11T04:54:04;6.00;99.90
51825;DHT22;37879;52.986;6.282;2023-02-11T04:56:29;5.90;99.90
51825;DHT22;37879;52.986;6.282;2023-02-11T04:58:55;5.90;99.90
51825;DHT22;37879;52.986;6.282;2023-02-11T05:01:21;5.90;99.90
51825;DHT22;37879;52.986;6.282;2023-02-11T05:03:46;5.90;99.90
51825;DHT22;37879;52.986;6.282;2023-02-11T05:06:12;6.40;99.90
51825;DHT22;37879;52.986;6.282;2023-02-11T05:08:38;5.90;99.90
51825;DHT22;37879;52.986;6.282;2023-02-11T05:11:04;6.10;99.90
51825;DHT22;37879;52.986;6.282;2023-02-11T05:13:29;5.90;99.90
51825;DHT22;37879;52.986;6.282;2023-02-11T05:15:55;5.90;99.90
51825;DHT22;37879;52.986;6.282;2023-02-11T05:18:21;5.90;99.90
51825;DHT22;37879;52.986;6.282;2023-02-11T05:20:47;6.00;99.90
51825;DHT22;37879;52.986;6.282;2023-02-11T05:23:13;5.90;99.90
51825;DHT22;37879;52.986;6.282;2023-02-11T05:25:38;5.90;99.90
51825;DHT22;37879;52.986;6.282;2023-02-11T05:28:04;5.90;99.90
51825;DHT22;37879;52.986;6.282;2023-02-11T05:30:30;5.90;99.90
51825;DHT22;37879;52.986;6.282;2023-02-11T05:32:56;5.90;99.90
51825;DHT22;37879;52.986;6.282;2023-02-11T05:35:22;5.90;99.90
51825;DHT22;37879;52.986;6.282;2023-02-11T05:37:48;5.90;99.90
51825;DHT22;37879;52.986;6.282;2023-02-11T05:40:14;7.10;99.90
51825;DHT22;37879;52.986;6.282;2023-02-11T05:42:40;5.90;99.90
51825;DHT22;37879;52.986;6.282;2023-02-11T05:45:06;5.90;99.90
51825;DHT22;37879;52.986;6.282;2023-02-11T05:47:32;5.80;99.90
51825;DHT22;37879;52.986;6.282;2023-02-11T05:49:58;5.80;99.90
51825;DHT22;37879;52.986;6.282;2023-02-11T05:52:24;5.80;99.90
51825;DHT22;37879;52.986;6.282;2023-02-11T05:54:50;5.90;99.90
51825;DHT22;37879;52.986;6.282;2023-02-11T05:57:16;5.80;99.90
51825;DHT22;37879;52.986;6.282;2023-02-11T05:59:42;5.90;99.90
51825;DHT22;37879;52.986;6.282;2023-02-11T06:02:08;5.90;99.90
51825;DHT22;37879;52.986;6.282;2023-02-11T06:04:35;5.90;99.90
51825;DHT22;37879;52.986;6.282;2023-02-11T06:07:01;6.00;99.90
51825;DHT22;37879;52.986;6.282;2023-02-11T06:09:27;7.10;99.90
51825;DHT22;37879;52.986;6.282;2023-02-11T06:11:52;5.90;99.90
51825;DHT22;37879;52.986;6.282;2023-02-11T06:14:18;6.00;99.90
51825;DHT22;37879;52.986;6.282;2023-02-11T06:16:44;6.00;99.90
51825;DHT22;37879;52.986;6.282;2023-02-11T06:19:11;6.00;99.90
51825;DHT22;37879;52.986;6.282;2023-02-11T06:21:37;6.00;99.90
51825;DHT22;37879;52.986;6.282;2023-02-11T06:24:04;6.00;99.90
51825;DHT22;37879;52.986;6.282;2023-02-11T06:26:30;6.00;99.90
51825;DHT22;37879;52.986;6.282;2023-02-11T06:28:59;5.90;99.90
51825;DHT22;37879;52.986;6.282;2023-02-11T06:31:24;5.50;99.90
51825;DHT22;37879;52.986;6.282;2023-02-11T06:33:50;6.00;99.90
51825;DHT22;37879;52.986;6.282;2023-02-11T06:36:18;6.00;99.90
51825;DHT22;37879;52.986;6.282;2023-02-11T06:38:45;5.90;99.90
51825;DHT22;37879;52.986;6.282;2023-02-11T06:41:13;5.90;99.90
51825;DHT22;37879;52.986;6.282;2023-02-11T06:43:39;5.90;99.90
51825;DHT22;37879;52.986;6.282;2023-02-11T06:46:05;5.90;99.90
51825;DHT22;37879;52.986;6.282;2023-02-11T06:48:31;5.80;99.90
51825;DHT22;37879;52.986;6.282;2023-02-11T06:51:01;5.90;99.90
51825;DHT22;37879;52.986;6.282;2023-02-11T06:53:27;6.10;99.90
51825;DHT22;37879;52.986;6.282;2023-02-11T06:55:53;5.90;99.90
51825;DHT22;37879;52.986;6.282;2023-02-11T06:58:18;5.80;99.90
51825;DHT22;37879;52.986;6.282;2023-02-11T07:00:44;6.60;99.90
51825;DHT22;37879;52.986;6.282;2023-02-11T07:03:09;6.10;99.90
51825;DHT22;37879;52.986;6.282;2023-02-11T07:05:35;5.80;99.90
51825;DHT22;37879;52.986;6.282;2023-02-11T07:08:03;5.80;99.90
51825;DHT22;37879;52.986;6.282;2023-02-11T07:10:28;5.80;99.90
51825;DHT22;37879;52.986;6.282;2023-02-11T07:12:54;5.90;99.90
51825;DHT22;37879;52.986;6.282;2023-02-11T07:15:20;5.80;99.90
51825;DHT22;37879;52.986;6.282;2023-02-11T07:17:45;5.80;99.90
51825;DHT22;37879;52.986;6.282;2023-02-11T07:20:11;5.70;99.90
51825;DHT22;37879;52.986;6.282;2023-02-11T07:22:39;5.70;99.90
51825;DHT22;37879;52.986;6.282;2023-02-11T07:25:04;5.70;99.90
51825;DHT22;37879;52.986;6.282;2023-02-11T07:27:30;5.70;99.90
51825;DHT22;37879;52.986;6.282;2023-02-11T07:29:56;5.70;99.90
51825;DHT22;37879;52.986;6.282;2023-02-11T07:32:21;4.40;99.90
51825;DHT22;37879;52.986;6.282;2023-02-11T07:34:47;5.80;99.90
51825;DHT22;37879;52.986;6.282;2023-02-11T07:37:13;5.70;99.90
51825;DHT22;37879;52.986;6.282;2023-02-11T07:39:39;5.70;99.90
51825;DHT22;37879;52.986;6.282;2023-02-11T07:42:05;5.70;99.90
51825;DHT22;37879;52.986;6.282;2023-02-11T07:44:31;6.00;99.90
51825;DHT22;37879;52.986;6.282;2023-02-11T07:46:58;5.70;99.90
51825;DHT22;37879;52.986;6.282;2023-02-11T07:49:24;5.70;99.90
51825;DHT22;37879;52.986;6.282;2023-02-11T07:51:49;5.70;99.90
51825;DHT22;37879;52.986;6.282;2023-02-11T07:54:16;5.70;99.90
51825;DHT22;37879;52.986;6.282;2023-02-11T07:56:41;5.70;99.90
51825;DHT22;37879;52.986;6.282;2023-02-11T07:59:07;5.70;99.90
51825;DHT22;37879;52.986;6.282;2023-02-11T08:01:33;5.80;99.90
51825;DHT22;37879;52.986;6.282;2023-02-11T08:04:00;5.80;99.90
51825;DHT22;37879;52.986;6.282;2023-02-11T08:06:29;5.80;99.90
51825;DHT22;37879;52.986;6.282;2023-02-11T08:08:54;5.70;99.90
51825;DHT22;37879;52.986;6.282;2023-02-11T08:11:23;5.80;99.90
51825;DHT22;37879;52.986;6.282;2023-02-11T08:13:50;5.80;99.90
51825;DHT22;37879;52.986;6.282;2023-02-11T08:16:21;5.80;99.90
51825;DHT22;37879;52.986;6.282;2023-02-11T08:18:48;5.80;99.90
51825;DHT22;37879;52.986;6.282;2023-02-11T08:21:14;5.80;99.90
51825;DHT22;37879;52.986;6.282;2023-02-11T08:23:41;5.80;99.90
51825;DHT22;37879;52.986;6.282;2023-02-11T08:26:11;5.80;99.90
51825;DHT22;37879;52.986;6.282;2023-02-11T08:28:38;5.80;99.90
51825;DHT22;37879;52.986;6.282;2023-02-11T08:31:06;5.10;99.90
51825;DHT22;37879;52.986;6.282;2023-02-11T08:33:32;5.90;99.90
51825;DHT22;37879;52.986;6.282;2023-02-11T08:35:58;5.90;99.90
51825;DHT22;37879;52.986;6.282;2023-02-11T08:38:24;5.90;99.90
51825;DHT22;37879;52.986;6.282;2023-02-11T08:40:50;5.90;99.90
51825;DHT22;37879;52.986;6.282;2023-02-11T08:43:15;6.00;99.90
51825;DHT22;37879;52.986;6.282;2023-02-11T08:45:41;6.00;99.90
51825;DHT22;37879;52.986;6.282;2023-02-11T08:48:07;6.00;99.90
51825;DHT22;37879;52.986;6.282;2023-02-11T08:50:33;6.10;99.90
51825;DHT22;37879;52.986;6.282;2023-02-11T08:52:59;6.10;99.90
51825;DHT22;37879;52.986;6.282;2023-02-11T08:55:24;6.10;99.90
51825;DHT22;37879;52.986;6.282;2023-02-11T08:57:50;6.10;99.90
51825;DHT22;37879;52.986;6.282;2023-02-11T09:00:16;6.20;99.90
51825;DHT22;37879;52.986;6.282;2023-02-11T09:02:43;6.30;99.90
51825;DHT22;37879;52.986;6.282;2023-02-11T09:05:08;7.00;99.90
51825;DHT22;37879;52.986;6.282;2023-02-11T09:07:34;6.40;99.90
51825;DHT22;37879;52.986;6.282;2023-02-11T09:09:59;6.60;99.90
51825;DHT22;37879;52.986;6.282;2023-02-11T09:12:25;6.60;99.90
51825;DHT22;37879;52.986;6.282;2023-02-11T09:14:51;6.70;99.90
51825;DHT22;37879;52.986;6.282;2023-02-11T09:17:16;6.80;99.90
51825;DHT22;37879;52.986;6.282;2023-02-11T09:19:42;6.90;99.90
51825;DHT22;37879;52.986;6.282;2023-02-11T09:22:08;7.00;99.90
51825;DHT22;37879;52.986;6.282;2023-02-11T09:24:33;7.10;99.90
51825;DHT22;37879;52.986;6.282;2023-02-11T09:26:59;7.20;99.90
51825;DHT22;37879;52.986;6.282;2023-02-11T09:29:24;7.20;99.90
51825;DHT22;37879;52.986;6.282;2023-02-11T09:31:50;7.30;99.90
51825;DHT22;37879;52.986;6.282;2023-02-11T09:34:16;7.30;99.90
51825;DHT22;37879;52.986;6.282;2023-02-11T09:36:41;7.40;99.90
51825;DHT22;37879;52.986;6.282;2023-02-11T09:39:12;7.40;99.90
51825;DHT22;37879;52.986;6.282;2023-02-11T09:44:25;7.50;99.90
51825;DHT22;37879;52.986;6.282;2023-02-11T09:47:00;8.40;99.90
51825;DHT22;37879;52.986;6.282;2023-02-11T09:49:38;7.80;99.90
51825;DHT22;37879;52.986;6.282;2023-02-11T09:52:14;7.80;99.90
51825;DHT22;37879;52.986;6.282;2023-02-11T09:54:58;7.90;99.90
51825;DHT22;37879;52.986;6.282;2023-02-11T09:57:31;7.90;99.90
51825;DHT22;37879;52.986;6.282;2023-02-11T09:59:57;7.90;99.90
51825;DHT22;37879;52.986;6.282;2023-02-11T10:02:35;8.00;99.90
51825;DHT22;37879;52.986;6.282;2023-02-11T10:08:27;8.00;99.90
51825;DHT22;37879;52.986;6.282;2023-02-11T10:11:10;8.10;99.90
51825;DHT22;37879;52.986;6.282;2023-02-11T10:13:45;8.10;99.90
51825;DHT22;37879;52.986;6.282;2023-02-11T10:16:42;8.20;99.90
51825;DHT22;37879;52.986;6.282;2023-02-11T10:22:40;8.40;99.90
51825;DHT22;37879;52.986;6.282;2023-02-11T10:27:42;8.50;99.90
51825;DHT22;37879;52.986;6.282;2023-02-11T10:30:32;8.20;99.90
51825;DHT22;37879;52.986;6.282;2023-02-11T10:33:23;8.50;99.90
51825;DHT22;37879;52.986;6.282;2023-02-11T10:35:49;8.50;99.90
51825;DHT22;37879;52.986;6.282;2023-02-11T10:38:15;8.50;99.90
51825;DHT22;37879;52.986;6.282;2023-02-11T10:40:41;8.60;99.90
51825;DHT22;37879;52.986;6.282;2023-02-11T10:43:11;8.60;99.90
51825;DHT22;37879;52.986;6.282;2023-02-11T10:45:51;8.60;99.90
51825;DHT22;37879;52.986;6.282;2023-02-11T10:48:50;8.70;99.90
51825;DHT22;37879;52.986;6.282;2023-02-11T10:51:28;8.70;99.90
51825;DHT22;37879;52.986;6.282;2023-02-11T10:56:32;8.80;99.90
51825;DHT22;37879;52.986;6.282;2023-02-11T10:59:31;8.80;99.90
51825;DHT22;37879;52.986;6.282;2023-02-11T11:02:23;8.80;99.90
51825;DHT22;37879;52.986;6.282;2023-02-11T11:04:55;8.90;99.90
51825;DHT22;37879;52.986;6.282;2023-02-11T11:07:24;8.90;99.90
51825;DHT22;37879;52.986;6.282;2023-02-11T11:10:00;8.90;99.90
51825;DHT22;37879;52.986;6.282;2023-02-11T11:15:18;8.90;99.90
51825;DHT22;37879;52.986;6.282;2023-02-11T11:17:47;8.90;99.90
51825;DHT22;37879;52.986;6.282;2023-02-11T11:20:26;9.20;99.90
51825;DHT22;37879;52.986;6.282;2023-02-11T11:23:14;8.90;99.90
51825;DHT22;37879;52.986;6.282;2023-02-11T11:26:07;9.00;99.90
51825;DHT22;37879;52.986;6.282;2023-02-11T11:34:36;9.00;99.90
51825;DHT22;37879;52.986;6.282;2023-02-11T11:37:34;9.10;99.90
51825;DHT22;37879;52.986;6.282;2023-02-11T11:42:41;9.20;99.90
51825;DHT22;37879;52.986;6.282;2023-02-11T11:52:55;9.20;99.90
51825;DHT22;37879;52.986;6.282;2023-02-11T11:55:27;9.30;99.90
51825;DHT22;37879;52.986;6.282;2023-02-11T11:57:55;9.30;99.90
51825;DHT22;37879;52.986;6.282;2023-02-11T12:00:35;9.30;99.90
51825;DHT22;37879;52.986;6.282;2023-02-11T12:03:09;9.40;99.90
51825;DHT22;37879;52.986;6.282;2023-02-11T12:13:50;9.40;99.90
51825;DHT22;37879;52.986;6.282;2023-02-11T12:30:43;9.60;99.90
51825;DHT22;37879;52.986;6.282;2023-02-11T12:36:15;9.70;99.90
51825;DHT22;37879;52.986;6.282;2023-02-11T12:39:08;9.80;99.90
51825;DHT22;37879;52.986;6.282;2023-02-11T12:44:49;9.90;99.90
51825;DHT22;37879;52.986;6.282;2023-02-11T12:47:29;11.00;99.90
51825;DHT22;37879;52.986;6.282;2023-02-11T12:50:05;9.80;99.90
51825;DHT22;37879;52.986;6.282;2023-02-11T12:55:20;9.60;99.90
51825;DHT22;37879;52.986;6.282;2023-02-11T12:57:48;9.50;99.90
51825;DHT22;37879;52.986;6.282;2023-02-11T13:03:11;9.50;99.90
51825;DHT22;37879;52.986;6.282;2023-02-11T13:05:53;9.50;99.90
51825;DHT22;37879;52.986;6.282;2023-02-11T13:08:39;9.50;99.90
51825;DHT22;37879;52.986;6.282;2023-02-11T13:32:13;9.90;99.90
51825;DHT22;37879;52.986;6.282;2023-02-11T13:37:36;10.40;99.90
51825;DHT22;37879;52.986;6.282;2023-02-11T13:42:33;9.90;99.90
51825;DHT22;37879;52.986;6.282;2023-02-11T13:45:43;9.90;99.90
51825;DHT22;37879;52.986;6.282;2023-02-11T13:48:21;9.90;99.90
51825;DHT22;37879;52.986;6.282;2023-02-11T13:50:49;9.90;99.90
51825;DHT22;37879;52.986;6.282;2023-02-11T13:53:16;10.00;99.90
51825;DHT22;37879;52.986;6.282;2023-02-11T13:55:48;10.50;99.90
51825;DHT22;37879;52.986;6.282;2023-02-11T14:00:45;10.00;99.90
51825;DHT22;37879;52.986;6.282;2023-02-11T14:09:38;10.10;99.90
51825;DHT22;37879;52.986;6.282;2023-02-11T14:19:31;10.30;99.90
51825;DHT22;37879;52.986;6.282;2023-02-11T14:29:50;10.30;99.90
51825;DHT22;37879;52.986;6.282;2023-02-11T14:38:05;10.10;99.90
51825;DHT22;37879;52.986;6.282;2023-02-11T14:40:40;10.00;99.90
51825;DHT22;37879;52.986;6.282;2023-02-11T14:43:20;9.90;99.90
51825;DHT22;37879;52.986;6.282;2023-02-11T14:45:50;9.90;99.90
51825;DHT22;37879;52.986;6.282;2023-02-11T14:48:19;9.80;99.90
51825;DHT22;37879;52.986;6.282;2023-02-11T14:53:30;9.70;99.90
51825;DHT22;37879;52.986;6.282;2023-02-11T14:55:56;9.70;99.90
51825;DHT22;37879;52.986;6.282;2023-02-11T14:58:30;9.70;99.90
51825;DHT22;37879;52.986;6.282;2023-02-11T15:01:05;9.70;99.90
51825;DHT22;37879;52.986;6.282;2023-02-11T15:03:47;9.70;99.90
51825;DHT22;37879;52.986;6.282;2023-02-11T15:06:20;9.70;99.90
51825;DHT22;37879;52.986;6.282;2023-02-11T15:11:33;9.60;99.90
51825;DHT22;37879;52.986;6.282;2023-02-11T15:14:15;9.60;99.90
51825;DHT22;37879;52.986;6.282;2023-02-11T15:16:44;10.00;99.90
51825;DHT22;37879;52.986;6.282;2023-02-11T15:19:28;9.50;99.90
51825;DHT22;37879;52.986;6.282;2023-02-11T15:21:54;9.60;99.90
51825;DHT22;37879;52.986;6.282;2023-02-11T15:24:28;9.50;99.90
51825;DHT22;37879;52.986;6.282;2023-02-11T15:27:15;9.50;99.90
51825;DHT22;37879;52.986;6.282;2023-02-11T15:29:49;9.50;99.90
51825;DHT22;37879;52.986;6.282;2023-02-11T15:32:24;9.50;99.90
51825;DHT22;37879;52.986;6.282;2023-02-11T15:34:51;9.50;99.90
51825;DHT22;37879;52.986;6.282;2023-02-11T15:37:24;9.50;99.90
51825;DHT22;37879;52.986;6.282;2023-02-11T15:39:52;9.50;99.90
51825;DHT22;37879;52.986;6.282;2023-02-11T15:42:28;10.30;99.90
51825;DHT22;37879;52.986;6.282;2023-02-11T15:45:20;9.40;99.90
51825;DHT22;37879;52.986;6.282;2023-02-11T15:47:52;9.30;99.90
51825;DHT22;37879;52.986;6.282;2023-02-11T15:50:30;9.30;99.90
51825;DHT22;37879;52.986;6.282;2023-02-11T15:52:58;9.30;99.90
51825;DHT22;37879;52.986;6.282;2023-02-11T15:55:25;9.20;99.90
51825;DHT22;37879;52.986;6.282;2023-02-11T15:57:58;9.20;99.90
51825;DHT22;37879;52.986;6.282;2023-02-11T16:00:32;9.20;99.90
51825;DHT22;37879;52.986;6.282;2023-02-11T16:02:58;9.60;99.90
51825;DHT22;37879;52.986;6.282;2023-02-11T16:05:32;9.10;99.90
51825;DHT22;37879;52.986;6.282;2023-02-11T16:08:00;9.10;99.90
51825;DHT22;37879;52.986;6.282;2023-02-11T16:10:36;9.10;99.90
51825;DHT22;37879;52.986;6.282;2023-02-11T16:18:13;9.00;99.90
51825;DHT22;37879;52.986;6.282;2023-02-11T16:20:39;9.00;99.90
51825;DHT22;37879;52.986;6.282;2023-02-11T16:23:06;8.90;99.90
51825;DHT22;37879;52.986;6.282;2023-02-11T16:25:34;8.90;99.90
51825;DHT22;37879;52.986;6.282;2023-02-11T16:28:00;8.80;99.90
51825;DHT22;37879;52.986;6.282;2023-02-11T16:30:31;8.80;99.90
51825;DHT22;37879;52.986;6.282;2023-02-11T16:32:57;8.80;99.90
51825;DHT22;37879;52.986;6.282;2023-02-11T16:35:23;8.80;99.90
51825;DHT22;37879;52.986;6.282;2023-02-11T16:37:48;8.80;99.90
51825;DHT22;37879;52.986;6.282;2023-02-11T16:40:14;8.80;99.90
51825;DHT22;37879;52.986;6.282;2023-02-11T16:42:40;8.60;99.90
51825;DHT22;37879;52.986;6.282;2023-02-11T16:45:05;8.80;99.90
51825;DHT22;37879;52.986;6.282;2023-02-11T16:47:33;8.60;99.90
51825;DHT22;37879;52.986;6.282;2023-02-11T16:49:59;8.50;99.90
51825;DHT22;37879;52.986;6.282;2023-02-11T16:52:25;8.40;99.90
51825;DHT22;37879;52.986;6.282;2023-02-11T16:54:52;8.30;99.90
51825;DHT22;37879;52.986;6.282;2023-02-11T16:57:23;8.30;99.90
51825;DHT22;37879;52.986;6.282;2023-02-11T16:59:49;8.30;99.90
51825;DHT22;37879;52.986;6.282;2023-02-11T17:02:30;8.30;99.90
51825;DHT22;37879;52.986;6.282;2023-02-11T17:05:07;8.40;99.90
51825;DHT22;37879;52.986;6.282;2023-02-11T17:07:39;8.40;99.90
51825;DHT22;37879;52.986;6.282;2023-02-11T17:10:16;8.60;99.90
51825;DHT22;37879;52.986;6.282;2023-02-11T17:12:42;8.40;99.90
51825;DHT22;37879;52.986;6.282;2023-02-11T17:15:08;8.40;99.90
51825;DHT22;37879;52.986;6.282;2023-02-11T17:17:34;8.40;99.90
51825;DHT22;37879;52.986;6.282;2023-02-11T17:20:00;8.40;99.90
51825;DHT22;37879;52.986;6.282;2023-02-11T17:22:26;8.30;99.90
51825;DHT22;37879;52.986;6.282;2023-02-11T17:24:51;8.30;99.90
51825;DHT22;37879;52.986;6.282;2023-02-11T17:27:20;8.30;99.90
51825;DHT22;37879;52.986;6.282;2023-02-11T17:29:46;8.30;99.90
51825;DHT22;37879;52.986;6.282;2023-02-11T17:32:11;8.30;99.90
51825;DHT22;37879;52.986;6.282;2023-02-11T17:34:37;8.30;99.90
51825;DHT22;37879;52.986;6.282;2023-02-11T17:37:03;8.30;99.90
51825;DHT22;37879;52.986;6.282;2023-02-11T17:39:34;8.30;99.90
51825;DHT22;37879;52.986;6.282;2023-02-11T17:42:00;8.30;99.90
51825;DHT22;37879;52.986;6.282;2023-02-11T17:44:26;8.20;99.90
51825;DHT22;37879;52.986;6.282;2023-02-11T17:46:51;8.20;99.90
51825;DHT22;37879;52.986;6.282;2023-02-11T17:49:17;8.20;99.90
51825;DHT22;37879;52.986;6.282;2023-02-11T17:51:44;8.20;99.90
51825;DHT22;37879;52.986;6.282;2023-02-11T17:54:16;8.20;99.90
51825;DHT22;37879;52.986;6.282;2023-02-11T17:56:43;8.10;99.90
51825;DHT22;37879;52.986;6.282;2023-02-11T17:59:10;8.10;99.90
51825;DHT22;37879;52.986;6.282;2023-02-11T18:01:37;8.10;99.90
51825;DHT22;37879;52.986;6.282;2023-02-11T18:04:04;8.10;99.90
51825;DHT22;37879;52.986;6.282;2023-02-11T18:06:30;8.10;99.90
51825;DHT22;37879;52.986;6.282;2023-02-11T18:08:59;8.10;99.90
51825;DHT22;37879;52.986;6.282;2023-02-11T18:11:27;8.00;99.90
51825;DHT22;37879;52.986;6.282;2023-02-11T18:13:55;8.00;99.90
51825;DHT22;37879;52.986;6.282;2023-02-11T18:16:22;8.00;99.90
51825;DHT22;37879;52.986;6.282;2023-02-11T18:18:48;7.90;99.90
51825;DHT22;37879;52.986;6.282;2023-02-11T18:21:16;7.90;99.90
51825;DHT22;37879;52.986;6.282;2023-02-11T18:23:43;7.90;99.90
51825;DHT22;37879;52.986;6.282;2023-02-11T18:26:10;7.80;99.90
51825;DHT22;37879;52.986;6.282;2023-02-11T18:28:36;7.80;99.90
51825;DHT22;37879;52.986;6.282;2023-02-11T18:31:03;7.80;99.90
51825;DHT22;37879;52.986;6.282;2023-02-11T18:33:29;7.80;99.90
51825;DHT22;37879;52.986;6.282;2023-02-11T18:35:55;7.80;99.90
51825;DHT22;37879;52.986;6.282;2023-02-11T18:38:21;7.70;99.90
51825;DHT22;37879;52.986;6.282;2023-02-11T18:40:47;7.90;99.90
51825;DHT22;37879;52.986;6.282;2023-02-11T18:43:15;7.60;99.90
51825;DHT22;37879;52.986;6.282;2023-02-11T18:45:45;7.70;99.90
51825;DHT22;37879;52.986;6.282;2023-02-11T18:48:11;7.50;99.90